TIST/STT METAR and TAF weather

Enter ICAO airport designator
Station Type Date Time Source
TIST METAR 2022/12/02 21:53 UTC NOAA

TIST 022153Z 06006KT 10SM BKN100 26/21 A2994 RMK AO2 SLP140 T02610211


Station Type Date Time Source
TIST Decoded METAR 2022/12/02 21:53 UTC NOAA

Charlotte Amalie St. Thomas, Cyril E. King Airport, Virgin Islands (TIST) 18-20N 064-59W
Dec 02, 2022 - 04:53 PM EST / 2022.12.02 2153 UTC
Wind: from the ENE (060 degrees) at 7 MPH (6 KT):0
Visibility: 10 mile(s):0
Sky conditions: mostly cloudy
Temperature: 79.0 F (26.1 C)
Dew Point: 70.0 F (21.1 C)
Relative Humidity: 73%
Pressure (altimeter): 29.94 in. Hg (1013 hPa)
ob: TIST 022153Z 06006KT 10SM BKN100 26/21 A2994 RMK AO2 SLP140 T02610211
cycle: 22

Station Type Date Time Source
TIST TAF 2022/12/02 18:45 UTC NOAA

TAF TIST 021741Z 0218/0318 07012KT P6SM FEW030 FEW050
FM022300 05008KT P6SM FEW035
FM031400 06012KT P6SM VCSH SCT030

Example: see airport list